Time;durP1;ratioP1;P1;durP2;ratioP2;P2;SDS_P1;SDS_P2;PMS_P1;PMS_P2;Temp;Humidity;BMP_temperature;BMP_pressure;BME280_temperature;BME280_humidity;BME280_pressure;Samples;Min_cycle;Max_cycle;Signal;HPM_P1;HPM_P2
2022/06/24 00:00:31;;;;;;;9.93;4.67;;;24.70;65.90;;;;;;4900434;29;20513;-47
2022/06/24 00:02:58;;;;;;;8.45;4.72;;;24.70;66.70;;;;;;4913698;29;20460;-51
2022/06/24 00:05:28;;;;;;;6.53;3.95;;;24.70;66.20;;;;;;4912504;29;20103;-46
2022/06/24 00:07:56;;;;;;;6.43;4.45;;;24.60;66.80;;;;;;4912740;29;20047;-52
2022/06/24 00:10:29;;;;;;;6.03;4.28;;;24.50;66.60;;;;;;4906972;29;20092;-46
2022/06/24 00:13:00;;;;;;;4.68;2.95;;;24.50;66.80;;;;;;4914487;29;20126;-46
2022/06/24 00:15:34;;;;;;;6.07;3.90;;;24.40;66.70;;;;;;4912789;29;20512;-48
2022/06/24 00:18:15;;;;;;;5.33;3.77;;;24.40;67.20;;;;;;4911949;29;20059;-46
2022/06/24 00:20:43;;;;;;;5.43;4.10;;;24.30;67.80;;;;;;4909407;29;20103;-46
2022/06/24 00:23:10;;;;;;;6.78;4.07;;;24.30;67.10;;;;;;4906327;29;20052;-50
2022/06/24 00:25:38;;;;;;;5.20;4.05;;;24.20;67.10;;;;;;4912631;29;20076;-50
2022/06/24 00:28:09;;;;;;;6.32;4.05;;;24.20;67.30;;;;;;4907909;29;20112;-48
2022/06/24 00:30:39;;;;;;;7.47;3.53;;;24.20;67.50;;;;;;4897995;29;20058;-46
2022/06/24 00:33:10;;;;;;;6.40;3.53;;;24.20;67.70;;;;;;4913490;29;20692;-51
2022/06/24 00:35:47;;;;;;;6.55;3.78;;;24.20;68.10;;;;;;4903182;29;20052;-46
2022/06/24 00:38:30;;;;;;;5.80;3.47;;;24.20;68.40;;;;;;4911937;29;20677;-49
2022/06/24 00:41:08;;;;;;;5.88;3.92;;;24.20;68.60;;;;;;4912825;29;20539;-51
2022/06/24 00:43:49;;;;;;;4.85;3.72;;;24.20;68.40;;;;;;4913382;29;20096;-48
2022/06/24 00:46:27;;;;;;;5.53;3.53;;;24.20;68.80;;;;;;4907303;29;20397;-50
2022/06/24 00:49:01;;;;;;;5.82;4.45;;;24.20;68.90;;;;;;4910053;29;20547;-49
2022/06/24 00:51:37;;;;;;;7.35;4.05;;;24.20;68.10;;;;;;4912602;29;20151;-50
2022/06/24 00:54:13;;;;;;;4.80;3.55;;;24.20;68.50;;;;;;4912451;29;20128;-49
2022/06/24 00:56:40;;;;;;;5.88;4.82;;;24.20;68.50;;;;;;4909982;29;20046;-46
2022/06/24 00:59:18;;;;;;;6.45;4.22;;;24.10;67.90;;;;;;4909587;29;20543;-52
2022/06/24 01:01:49;;;;;;;6.03;3.97;;;24.10;68.10;;;;;;4912673;29;20044;-48
2022/06/24 01:04:16;;;;;;;9.30;4.07;;;24.20;68.30;;;;;;4909289;29;20052;-48
2022/06/24 01:06:46;;;;;;;6.18;4.53;;;24.10;68.20;;;;;;4907932;29;20044;-48
2022/06/24 01:09:19;;;;;;;6.18;5.05;;;24.10;68.50;;;;;;4912208;29;20563;-51
2022/06/24 01:11:46;;;;;;;6.45;4.40;;;24.10;68.50;;;;;;4912923;29;20071;-47
2022/06/24 01:14:15;;;;;;;6.97;4.22;;;24.10;68.40;;;;;;4911670;29;20052;-51
2022/06/24 01:16:47;;;;;;;6.80;3.70;;;24.10;68.70;;;;;;4907365;29;20058;-49
2022/06/24 01:19:15;;;;;;;5.90;3.67;;;24.10;68.90;;;;;;4915387;29;20111;-47
2022/06/24 01:21:47;;;;;;;6.28;3.75;;;24.10;69.00;;;;;;4916146;29;20055;-48
2022/06/24 01:24:24;;;;;;;6.60;3.90;;;24.00;69.10;;;;;;4912179;29;20056;-52
2022/06/24 01:26:56;;;;;;;5.40;4.28;;;24.10;69.80;;;;;;4914655;29;20103;-50
2022/06/24 01:29:25;;;;;;;5.28;3.25;;;24.00;69.40;;;;;;4916392;29;20048;-47
2022/06/24 01:31:53;;;;;;;4.50;3.83;;;24.10;69.30;;;;;;4915648;29;20052;-49
2022/06/24 01:34:22;;;;;;;6.05;3.72;;;24.00;69.20;;;;;;4924233;29;20052;-48
2022/06/24 01:36:50;;;;;;;5.90;3.75;;;24.10;69.70;;;;;;4915796;29;20047;-48
2022/06/24 01:39:17;;;;;;;5.43;3.50;;;24.00;69.60;;;;;;4917041;29;20052;-48
2022/06/24 01:41:50;;;;;;;4.03;3.08;;;24.10;69.50;;;;;;4915778;29;20107;-51
2022/06/24 01:44:18;;;;;;;3.72;3.42;;;24.10;69.50;;;;;;4910784;29;20056;-50
2022/06/24 01:46:49;;;;;;;5.63;3.30;;;24.10;69.40;;;;;;4915831;29;20476;-45
2022/06/24 01:49:18;;;;;;;4.75;3.53;;;24.20;69.40;;;;;;4915646;29;20456;-48
2022/06/24 01:51:49;;;;;;;5.20;3.40;;;24.10;69.00;;;;;;4911220;29;20075;-46
2022/06/24 01:54:18;;;;;;;5.30;3.28;;;24.10;68.90;;;;;;4915711;29;20044;-52
2022/06/24 01:56:47;;;;;;;5.32;3.28;;;24.10;68.70;;;;;;4915811;29;20036;-49
2022/06/24 01:59:17;;;;;;;7.43;3.60;;;24.10;69.00;;;;;;4896589;29;20144;-49
2022/06/24 02:01:44;;;;;;;5.15;4.03;;;24.10;69.10;;;;;;4913921;29;20051;-46
2022/06/24 02:04:11;;;;;;;4.43;3.78;;;24.10;69.00;;;;;;4914459;29;20104;-49
2022/06/24 02:06:38;;;;;;;5.57;4.30;;;24.10;69.10;;;;;;4915448;29;20412;-46
2022/06/24 02:09:06;;;;;;;4.90;3.65;;;24.10;69.00;;;;;;4915073;29;20044;-47
2022/06/24 02:14:23;;;;;;;4.68;4.22;;;24.10;69.30;;;;;;4912386;29;20125;-56
2022/06/24 02:16:50;;;;;;;7.07;5.00;;;24.10;69.20;;;;;;4915538;29;20052;-47
2022/06/24 02:19:17;;;;;;;8.43;5.28;;;24.10;69.30;;;;;;4915991;29;20098;-53
2022/06/24 02:21:44;;;;;;;8.70;6.70;;;24.00;69.30;;;;;;4909651;29;20067;-50
2022/06/24 02:24:13;;;;;;;9.70;6.97;;;24.00;69.30;;;;;;4914328;29;20052;-51
2022/06/24 02:26:43;;;;;;;8.57;6.28;;;24.00;69.30;;;;;;4915299;29;20055;-48
2022/06/24 02:29:11;;;;;;;7.43;6.32;;;24.10;69.60;;;;;;4915851;29;20127;-49
2022/06/24 02:31:42;;;;;;;9.98;6.82;;;24.00;69.50;;;;;;4908449;29;20048;-53
2022/06/24 02:34:09;;;;;;;9.10;6.88;;;24.00;70.40;;;;;;4914661;29;20048;-49
2022/06/24 02:36:35;;;;;;;10.80;7.00;;;24.00;69.80;;;;;;4914776;29;20415;-47
2022/06/24 02:39:04;;;;;;;7.25;6.32;;;24.00;69.80;;;;;;4909066;29;20057;-56
2022/06/24 02:41:37;;;;;;;9.18;6.68;;;24.00;69.90;;;;;;4912342;29;20100;-46
2022/06/24 02:44:06;;;;;;;7.57;6.70;;;23.90;69.80;;;;;;4915162;29;20055;-46
2022/06/24 02:46:36;;;;;;;7.03;6.30;;;23.90;69.70;;;;;;4914591;29;20100;-50
2022/06/24 02:49:03;;;;;;;7.85;6.65;;;23.90;69.70;;;;;;4912127;29;20047;-52
2022/06/24 02:51:32;;;;;;;6.30;5.60;;;23.90;69.60;;;;;;4914396;29;20095;-47
2022/06/24 02:53:58;;;;;;;6.05;5.45;;;23.90;69.80;;;;;;4914828;29;20044;-49
2022/06/24 02:56:25;;;;;;;5.82;5.30;;;23.80;69.60;;;;;;4913878;29;20044;-46
2022/06/24 02:58:52;;;;;;;8.15;4.80;;;23.80;69.80;;;;;;4911223;29;20715;-52
2022/06/24 03:01:19;;;;;;;5.10;4.63;;;23.90;69.60;;;;;;4912503;29;20047;-48
2022/06/24 03:03:46;;;;;;;5.10;4.65;;;23.80;69.60;;;;;;4916011;29;20044;-48
2022/06/24 03:06:16;;;;;;;6.93;4.45;;;23.70;69.40;;;;;;4915151;29;20078;-46
2022/06/24 03:08:51;;;;;;;6.10;4.68;;;23.70;69.60;;;;;;4913241;29;20044;-47
2022/06/24 03:11:18;;;;;;;5.57;5.07;;;23.70;69.60;;;;;;4903287;29;20052;-48
2022/06/24 03:13:45;;;;;;;4.72;4.32;;;23.70;69.40;;;;;;4915112;29;20593;-54
2022/06/24 03:16:12;;;;;;;4.97;4.47;;;23.60;69.30;;;;;;4914635;29;20048;-45
2022/06/24 03:18:40;;;;;;;7.25;4.97;;;23.60;69.50;;;;;;4909721;29;20091;-47
2022/06/24 03:21:09;;;;;;;5.25;4.68;;;23.60;69.80;;;;;;4921420;29;20051;-47
2022/06/24 03:23:36;;;;;;;7.05;4.90;;;23.60;69.80;;;;;;4934308;29;20556;-50
2022/06/24 03:26:03;;;;;;;4.93;4.35;;;23.50;69.40;;;;;;4933191;29;20488;-49
2022/06/24 03:28:30;;;;;;;7.57;5.18;;;23.60;69.70;;;;;;4913995;29;20103;-46
2022/06/24 03:31:00;;;;;;;5.65;5.15;;;23.50;69.50;;;;;;4910109;29;20085;-51
2022/06/24 03:33:28;;;;;;;6.15;5.55;;;23.50;69.70;;;;;;4914267;29;20051;-50
2022/06/24 03:35:55;;;;;;;5.28;4.88;;;23.40;69.70;;;;;;4908923;29;20103;-47
2022/06/24 03:38:26;;;;;;;5.68;4.93;;;23.40;69.70;;;;;;4915101;29;20127;-48
2022/06/24 03:40:53;;;;;;;8.10;6.28;;;23.40;69.90;;;;;;4914149;29;20044;-50
2022/06/24 03:43:24;;;;;;;7.10;6.40;;;23.40;69.70;;;;;;4914216;29;20046;-46
2022/06/24 03:46:02;;;;;;;8.73;7.57;;;23.40;69.70;;;;;;4907993;29;20099;-50
2022/06/24 03:48:30;;;;;;;7.97;7.28;;;23.40;70.40;;;;;;4915142;29;20040;-49
2022/06/24 03:50:57;;;;;;;8.18;7.40;;;23.30;69.80;;;;;;4913929;29;20040;-50
2022/06/24 03:53:27;;;;;;;8.18;7.50;;;23.30;69.90;;;;;;4914532;29;20044;-52
2022/06/24 03:55:53;;;;;;;8.35;7.60;;;23.30;70.50;;;;;;4907835;29;20114;-46
2022/06/24 03:58:29;;;;;;;8.73;7.93;;;23.30;70.40;;;;;;4914437;29;20168;-52
2022/06/24 04:01:07;;;;;;;8.55;7.60;;;23.30;71.10;;;;;;4913692;29;20044;-46
2022/06/24 04:03:39;;;;;;;7.80;7.03;;;23.20;71.30;;;;;;4915354;29;20067;-47
2022/06/24 04:06:10;;;;;;;8.15;7.35;;;23.20;71.00;;;;;;4908889;29;20526;-46
2022/06/24 04:08:38;;;;;;;7.45;6.82;;;23.30;71.00;;;;;;4906001;29;20049;-49
2022/06/24 04:11:11;;;;;;;9.50;7.93;;;23.30;71.20;;;;;;4913886;29;20107;-46
2022/06/24 04:13:38;;;;;;;8.10;7.20;;;23.30;71.20;;;;;;4909313;29;20669;-55
2022/06/24 04:16:05;;;;;;;8.30;7.30;;;23.30;71.20;;;;;;4910981;29;20491;-50
2022/06/24 04:18:37;;;;;;;8.05;7.22;;;23.30;71.30;;;;;;4908797;29;20116;-49
2022/06/24 04:21:11;;;;;;;8.57;7.78;;;23.40;71.60;;;;;;4919913;29;20057;-50
2022/06/24 04:23:38;;;;;;;8.77;7.97;;;23.40;71.70;;;;;;4895592;29;20417;-49
2022/06/24 04:26:08;;;;;;;7.60;6.90;;;23.40;71.30;;;;;;4894760;29;20079;-49
2022/06/24 04:28:35;;;;;;;8.57;7.10;;;23.40;71.40;;;;;;4910491;29;20444;-51
2022/06/24 04:31:03;;;;;;;11.40;8.20;;;23.40;71.30;;;;;;4913854;29;20044;-49
2022/06/24 04:33:30;;;;;;;8.05;7.35;;;23.40;71.30;;;;;;4911030;29;20086;-50
2022/06/24 04:35:57;;;;;;;8.32;7.18;;;23.40;71.20;;;;;;4913023;29;20448;-51
2022/06/24 04:38:24;;;;;;;9.00;7.95;;;23.40;71.20;;;;;;4915104;29;20416;-46
2022/06/24 04:40:50;;;;;;;8.90;7.97;;;23.40;71.00;;;;;;4912523;29;20523;-49
2022/06/24 04:43:17;;;;;;;8.98;8.15;;;23.40;71.00;;;;;;4909452;29;20126;-50
2022/06/24 04:45:44;;;;;;;9.32;8.40;;;23.40;70.90;;;;;;4912093;29;20044;-49
2022/06/24 04:48:13;;;;;;;9.57;8.07;;;23.50;71.00;;;;;;4914675;29;20084;-48
2022/06/24 04:50:40;;;;;;;7.82;7.10;;;23.40;70.90;;;;;;4906233;29;20107;-52
2022/06/24 04:53:11;;;;;;;12.23;8.18;;;23.40;70.70;;;;;;4913851;29;20054;-52
2022/06/24 04:55:38;;;;;;;10.45;8.23;;;23.50;70.80;;;;;;4929079;23;20107;-48
2022/06/24 04:58:05;;;;;;;9.52;8.27;;;23.40;70.90;;;;;;4914937;29;20054;-46
2022/06/24 05:00:32;;;;;;;9.93;8.93;;;23.40;70.80;;;;;;4916172;29;20044;-47
2022/06/24 05:02:58;;;;;;;9.70;8.70;;;23.50;70.50;;;;;;4916911;29;20127;-46
2022/06/24 05:05:25;;;;;;;9.65;8.75;;;23.40;71.00;;;;;;4913787;29;20041;-47
2022/06/24 05:07:52;;;;;;;9.57;8.68;;;23.40;70.50;;;;;;4916101;29;20040;-46
2022/06/24 05:10:18;;;;;;;9.88;8.88;;;23.50;70.50;;;;;;4913014;29;20048;-46
2022/06/24 05:12:45;;;;;;;9.38;8.57;;;23.40;70.40;;;;;;4917414;29;20054;-50
2022/06/24 05:15:12;;;;;;;10.10;9.00;;;23.40;70.40;;;;;;4916247;29;20033;-47
2022/06/24 05:17:39;;;;;;;9.10;8.25;;;23.40;70.40;;;;;;4916179;29;20036;-47
2022/06/24 05:20:06;;;;;;;10.23;8.90;;;23.40;70.60;;;;;;4910196;29;20592;-46
2022/06/24 05:22:39;;;;;;;9.68;8.73;;;23.30;70.50;;;;;;4922030;29;20115;-47
2022/06/24 05:25:07;;;;;;;13.48;9.10;;;23.40;70.70;;;;;;4915338;29;20048;-48
2022/06/24 05:27:34;;;;;;;9.65;8.63;;;23.40;70.70;;;;;;4912785;29;20043;-46
2022/06/24 05:30:00;;;;;;;9.80;8.85;;;23.40;70.80;;;;;;4914048;29;20043;-49
2022/06/24 05:32:29;;;;;;;10.20;9.20;;;23.40;70.80;;;;;;4921352;29;20048;-47
2022/06/24 05:34:56;;;;;;;10.13;7.85;;;23.30;70.80;;;;;;4915244;29;20075;-48
2022/06/24 05:37:23;;;;;;;9.70;8.70;;;23.40;71.10;;;;;;4911994;29;20051;-49
2022/06/24 05:39:50;;;;;;;8.10;7.35;;;23.40;71.10;;;;;;4915353;29;20515;-48
2022/06/24 05:42:17;;;;;;;9.63;8.48;;;23.40;71.40;;;;;;4913867;29;20048;-46
2022/06/24 05:44:43;;;;;;;8.77;7.90;;;23.40;71.30;;;;;;4914003;29;20048;-49
2022/06/24 05:47:10;;;;;;;10.60;9.38;;;23.40;71.20;;;;;;4908956;29;20139;-47
2022/06/24 05:49:37;;;;;;;10.77;9.27;;;23.40;71.20;;;;;;4906801;29;20037;-48
2022/06/24 05:52:04;;;;;;;9.40;8.50;;;23.50;71.10;;;;;;4915329;29;20444;-50
2022/06/24 05:57:16;;;;;;;8.85;8.02;;;23.60;70.90;;;;;;4910847;29;20048;-46
2022/06/24 05:59:43;;;;;;;9.88;8.70;;;23.70;70.50;;;;;;4917118;29;20100;-49
2022/06/24 06:02:10;;;;;;;11.13;8.85;;;23.70;70.50;;;;;;4914133;29;20044;-46
2022/06/24 06:04:36;;;;;;;8.77;8.05;;;23.70;70.40;;;;;;4912085;29;20040;-49
2022/06/24 06:07:03;;;;;;;9.13;7.78;;;23.80;70.20;;;;;;4913679;29;20052;-49
2022/06/24 06:09:30;;;;;;;8.88;7.35;;;23.80;69.80;;;;;;4914464;29;20044;-49
2022/06/24 06:11:58;;;;;;;6.82;6.20;;;23.80;69.60;;;;;;4914282;29;20048;-50
2022/06/24 06:14:25;;;;;;;7.78;6.43;;;23.80;68.80;;;;;;4914980;29;20577;-51
2022/06/24 06:17:00;;;;;;;10.88;7.78;;;23.70;68.80;;;;;;4910914;29;20044;-52
2022/06/24 06:19:27;;;;;;;8.32;7.55;;;23.70;68.90;;;;;;4914461;29;20051;-51
2022/06/24 06:21:54;;;;;;;9.63;8.32;;;23.70;69.30;;;;;;4914316;29;20079;-47
2022/06/24 06:24:20;;;;;;;11.57;8.07;;;23.70;69.30;;;;;;4911770;29;20096;-52
2022/06/24 06:26:48;;;;;;;10.02;8.10;;;23.70;69.50;;;;;;4909612;29;20408;-45
2022/06/24 06:29:15;;;;;;;8.65;7.50;;;23.70;69.50;;;;;;4897385;29;20040;-51
2022/06/24 06:31:44;;;;;;;8.88;7.97;;;23.70;69.70;;;;;;4914928;29;20028;-50
2022/06/24 06:34:11;;;;;;;8.05;7.22;;;23.60;69.80;;;;;;4914526;29;20041;-50
2022/06/24 06:36:37;;;;;;;7.57;6.43;;;23.60;69.50;;;;;;4914236;29;20044;-47
2022/06/24 06:39:04;;;;;;;6.13;5.53;;;23.50;69.20;;;;;;4915982;29;20404;-46
2022/06/24 06:41:33;;;;;;;6.05;5.25;;;23.40;69.70;;;;;;4912838;29;20107;-46
2022/06/24 06:44:00;;;;;;;6.72;5.75;;;23.50;70.00;;;;;;4913441;29;20043;-46
2022/06/24 06:46:28;;;;;;;6.72;6.00;;;23.40;69.70;;;;;;4913996;29;20051;-51
2022/06/24 06:48:56;;;;;;;6.15;5.55;;;23.30;69.90;;;;;;4914886;29;20127;-45
2022/06/24 06:51:22;;;;;;;7.00;6.00;;;23.30;69.90;;;;;;4895175;29;20076;-50
2022/06/24 06:53:49;;;;;;;6.00;5.43;;;23.20;69.90;;;;;;4913276;29;20044;-46
2022/06/24 06:56:16;;;;;;;6.05;5.40;;;23.20;69.90;;;;;;4915132;29;20040;-49
2022/06/24 06:58:42;;;;;;;6.50;5.68;;;23.10;70.00;;;;;;4916369;29;20470;-52
2022/06/24 07:01:09;;;;;;;6.88;6.18;;;23.10;70.40;;;;;;4914979;29;20074;-46
2022/06/24 07:03:36;;;;;;;7.10;5.82;;;23.00;70.70;;;;;;4909009;29;20044;-46
2022/06/24 07:06:03;;;;;;;6.43;5.63;;;23.00;70.90;;;;;;4912758;29;20044;-46
2022/06/24 07:08:29;;;;;;;6.43;5.85;;;22.90;71.00;;;;;;4914543;29;20040;-50
2022/06/24 07:10:57;;;;;;;6.38;5.82;;;22.90;71.00;;;;;;4913969;29;20060;-50
2022/06/24 07:13:24;;;;;;;6.40;5.80;;;22.90;70.80;;;;;;4909741;29;20068;-47
2022/06/24 07:15:51;;;;;;;6.18;5.57;;;22.90;71.00;;;;;;4912250;29;20145;-46
2022/06/24 07:18:17;;;;;;;6.82;5.88;;;22.80;70.80;;;;;;4914583;29;20052;-50
2022/06/24 07:20:45;;;;;;;6.03;5.43;;;22.90;71.10;;;;;;4911490;29;20658;-51
2022/06/24 07:23:11;;;;;;;6.18;5.68;;;22.90;71.30;;;;;;4914042;29;20063;-47
2022/06/24 07:25:38;;;;;;;6.80;5.50;;;22.80;71.60;;;;;;4913619;29;20101;-49
2022/06/24 07:28:05;;;;;;;5.72;5.22;;;22.90;71.90;;;;;;4913206;29;20096;-49
2022/06/24 07:30:32;;;;;;;5.40;4.90;;;22.90;72.10;;;;;;4910972;29;20071;-49
2022/06/24 07:32:59;;;;;;;4.55;4.15;;;22.90;72.00;;;;;;4914234;29;20112;-47
2022/06/24 07:35:26;;;;;;;4.20;3.90;;;23.00;71.50;;;;;;4912463;29;20079;-47
2022/06/24 07:38:13;;;;;;;5.13;4.63;;;23.00;71.40;;;;;;4913983;29;20068;-46
2022/06/24 07:40:39;;;;;;;6.07;4.57;;;23.10;71.50;;;;;;4909317;29;20044;-47
2022/06/24 07:43:07;;;;;;;8.18;5.10;;;23.20;71.30;;;;;;4914313;29;20056;-46
2022/06/24 07:45:33;;;;;;;4.85;4.47;;;23.20;71.70;;;;;;4916351;29;20040;-48
2022/06/24 07:48:00;;;;;;;4.78;4.38;;;23.30;71.50;;;;;;4913645;29;20400;-48
2022/06/24 07:50:27;;;;;;;6.22;3.60;;;23.40;70.80;;;;;;4912044;29;20054;-46
2022/06/24 07:52:54;;;;;;;4.03;3.60;;;23.50;70.70;;;;;;4919665;29;20041;-50
2022/06/24 07:58:20;;;;;;;4.65;3.63;;;23.70;70.30;;;;;;4867754;29;20052;-48
2022/06/24 08:00:48;;;;;;;5.93;4.45;;;23.70;70.30;;;;;;4910561;29;20052;-47
2022/06/24 08:03:15;;;;;;;4.78;4.30;;;23.70;69.60;;;;;;4913451;29;20107;-50
2022/06/24 08:05:43;;;;;;;4.45;4.05;;;23.80;69.40;;;;;;4912055;29;20044;-48
2022/06/24 08:08:14;;;;;;;;;;;23.80;68.90;;;;;;4911501;29;20075;-46
2022/06/24 08:10:41;;;;;;;4.78;3.83;;;23.90;68.60;;;;;;4912736;29;19927;-45
2022/06/24 08:13:08;;;;;;;3.75;3.45;;;23.90;68.80;;;;;;4912073;29;20040;-46
2022/06/24 08:15:34;;;;;;;5.03;4.63;;;24.00;68.60;;;;;;4909478;29;20508;-46
2022/06/24 08:18:01;;;;;;;3.83;3.53;;;24.00;68.70;;;;;;4911851;29;20055;-46
2022/06/24 08:20:28;;;;;;;4.72;3.47;;;24.00;68.70;;;;;;4912061;29;20040;-48
2022/06/24 08:22:55;;;;;;;4.22;3.42;;;24.00;68.90;;;;;;4911950;29;20075;-46
2022/06/24 08:25:24;;;;;;;4.55;4.15;;;24.00;68.80;;;;;;4909854;29;20044;-47
2022/06/24 08:27:51;;;;;;;6.70;5.03;;;24.00;68.60;;;;;;4911118;29;20100;-46
2022/06/24 08:30:21;;;;;;;4.68;4.28;;;24.00;68.70;;;;;;4911986;29;20496;-49
2022/06/24 08:32:50;;;;;;;5.43;5.00;;;24.00;68.50;;;;;;4911149;29;20044;-46
2022/06/24 08:35:17;;;;;;;5.38;4.95;;;24.10;68.50;;;;;;4911408;29;20040;-46
2022/06/24 08:37:54;;;;;;;6.75;6.15;;;24.10;68.70;;;;;;4911636;29;20040;-49
2022/06/24 08:40:24;;;;;;;7.53;6.25;;;24.10;68.60;;;;;;4913219;29;20056;-46
2022/06/24 08:42:53;;;;;;;8.23;6.97;;;24.20;69.20;;;;;;4913284;29;20455;-46
2022/06/24 08:45:20;;;;;;;6.97;6.38;;;24.30;69.10;;;;;;4908916;29;20457;-45
2022/06/24 08:47:48;;;;;;;7.57;6.88;;;24.30;69.50;;;;;;4912838;29;20052;-48
2022/06/24 08:50:16;;;;;;;7.85;6.93;;;24.30;69.20;;;;;;4911962;29;20080;-45
2022/06/24 08:52:49;;;;;;;8.95;7.97;;;24.50;69.20;;;;;;4912677;29;20589;-49
2022/06/24 08:55:22;;;;;;;6.70;6.07;;;24.60;69.10;;;;;;4902923;29;20036;-48
2022/06/24 08:57:49;;;;;;;8.18;6.93;;;24.70;69.00;;;;;;4913033;29;20465;-46
2022/06/24 09:00:18;;;;;;;8.30;6.85;;;24.90;68.70;;;;;;4911842;29;20052;-46
2022/06/24 09:02:46;;;;;;;8.95;7.18;;;24.90;68.20;;;;;;4910897;29;20059;-46
2022/06/24 09:05:14;;;;;;;6.90;6.28;;;25.10;67.70;;;;;;4911356;29;20048;-47
2022/06/24 09:07:41;;;;;;;7.68;6.80;;;25.10;67.70;;;;;;4910521;29;20444;-49
2022/06/24 09:10:12;;;;;;;7.75;6.57;;;25.20;68.00;;;;;;4911591;29;20452;-46
2022/06/24 09:12:48;;;;;;;7.45;6.75;;;25.30;67.20;;;;;;4911398;29;20072;-48
2022/06/24 09:15:15;;;;;;;7.38;6.68;;;25.40;67.50;;;;;;4909661;29;20036;-46
2022/06/24 09:17:44;;;;;;;5.80;5.30;;;25.50;67.40;;;;;;4912701;29;20104;-47
2022/06/24 09:20:17;;;;;;;6.40;5.80;;;25.60;67.20;;;;;;4911478;29;20074;-52
2022/06/24 09:23:10;;;;;;;7.45;5.07;;;25.80;66.10;;;;;;4910812;29;20052;-46
2022/06/24 09:25:41;;;;;;;5.45;4.93;;;26.00;66.80;;;;;;4907333;29;20048;-46
2022/06/24 09:28:08;;;;;;;8.20;5.65;;;26.10;64.70;;;;;;4911926;29;20044;-46
2022/06/24 09:30:36;;;;;;;5.22;4.78;;;26.20;64.20;;;;;;4910416;29;20108;-49
2022/06/24 09:33:03;;;;;;;6.03;5.43;;;26.40;64.20;;;;;;4908423;29;20047;-46
2022/06/24 09:35:59;;;;;;;5.43;5.03;;;26.50;64.20;;;;;;4911369;29;20397;-47
2022/06/24 09:38:26;;;;;;;5.65;5.15;;;26.70;62.20;;;;;;4911144;29;20040;-47
2022/06/24 09:41:00;;;;;;;5.25;4.85;;;26.70;62.60;;;;;;4913068;29;20060;-46
2022/06/24 09:43:31;;;;;;;5.95;5.45;;;26.80;61.40;;;;;;4915278;29;20055;-46
2022/06/24 09:45:58;;;;;;;6.35;5.32;;;26.80;61.00;;;;;;4914292;29;20052;-45
2022/06/24 09:48:28;;;;;;;5.68;5.10;;;26.70;60.70;;;;;;4914598;29;20037;-46
2022/06/24 09:51:05;;;;;;;7.80;6.88;;;26.60;61.30;;;;;;4912845;29;20444;-46
2022/06/24 09:53:35;;;;;;;5.95;5.53;;;26.60;60.80;;;;;;4914632;29;20068;-49
2022/06/24 09:56:07;;;;;;;4.78;4.40;;;26.50;59.70;;;;;;4914897;29;20105;-48
2022/06/24 09:58:36;;;;;;;6.05;4.63;;;26.40;59.40;;;;;;4913609;29;20532;-48
2022/06/24 10:01:03;;;;;;;3.92;3.63;;;26.30;59.60;;;;;;4913440;29;20048;-48
2022/06/24 10:03:32;;;;;;;5.40;4.55;;;26.30;61.10;;;;;;4912465;29;20040;-47
2022/06/24 10:06:09;;;;;;;5.35;4.85;;;26.20;61.10;;;;;;4913234;29;20461;-46
2022/06/24 10:08:37;;;;;;;5.43;4.90;;;26.30;60.40;;;;;;4915774;29;20106;-48
2022/06/24 10:11:25;;;;;;;5.47;4.88;;;26.30;60.50;;;;;;4912690;29;20072;-49
2022/06/24 10:13:52;;;;;;;5.68;5.20;;;26.30;59.90;;;;;;4916068;29;20079;-46
2022/06/24 10:16:21;;;;;;;4.50;4.10;;;26.40;60.20;;;;;;4915233;29;20047;-46
2022/06/24 10:18:52;;;;;;;4.35;3.70;;;26.40;60.30;;;;;;4912278;29;20044;-46
2022/06/24 10:21:19;;;;;;;3.85;3.55;;;26.40;60.20;;;;;;4909304;29;20127;-49
2022/06/24 10:23:46;;;;;;;4.00;3.70;;;26.40;59.50;;;;;;4915687;29;20054;-49
2022/06/24 10:26:19;;;;;;;4.32;3.90;;;26.40;59.90;;;;;;4922109;29;20780;-46
2022/06/24 10:29:03;;;;;;;4.60;4.20;;;26.40;59.30;;;;;;4912573;29;20052;-47
2022/06/24 10:31:48;;;;;;;3.80;3.50;;;26.40;59.60;;;;;;4913438;29;20048;-46
2022/06/24 10:34:20;;;;;;;4.03;2.35;;;26.40;58.90;;;;;;4914207;29;20128;-50
2022/06/24 10:36:50;;;;;;;2.58;2.38;;;26.40;57.40;;;;;;4914316;29;20049;-47
2022/06/24 10:39:22;;;;;;;2.50;2.30;;;26.40;57.20;;;;;;4910550;29;20052;-46
2022/06/24 10:42:04;;;;;;;3.05;2.00;;;26.40;56.50;;;;;;4913698;29;20720;-46
2022/06/24 10:44:38;;;;;;;3.58;2.15;;;26.50;57.50;;;;;;4913036;29;20099;-47
2022/06/24 10:47:05;;;;;;;3.08;2.60;;;26.60;56.80;;;;;;4906852;29;20041;-46
2022/06/24 10:50:06;;;;;;;3.97;3.08;;;26.50;57.70;;;;;;4907346;29;20058;-46
2022/06/24 10:52:55;;;;;;;3.40;2.50;;;26.60;57.70;;;;;;4891533;29;20059;-46
2022/06/24 10:55:24;;;;;;;2.65;2.45;;;26.60;57.00;;;;;;4913498;29;20051;-46
2022/06/24 10:58:08;;;;;;;2.65;2.45;;;26.70;56.80;;;;;;4911144;29;20040;-47
2022/06/24 11:00:43;;;;;;;4.28;2.33;;;26.80;56.60;;;;;;4913565;29;20112;-47
2022/06/24 11:03:32;;;;;;;2.97;2.58;;;26.90;55.40;;;;;;4912339;29;20052;-48
2022/06/24 11:05:59;;;;;;;2.28;1.90;;;27.10;55.50;;;;;;4909147;29;20107;-49
2022/06/24 11:08:26;;;;;;;3.25;2.25;;;27.20;55.30;;;;;;4912846;29;20107;-46
2022/06/24 11:10:54;;;;;;;2.83;2.25;;;27.30;55.10;;;;;;4912660;29;20044;-49
2022/06/24 11:13:23;;;;;;;2.10;1.90;;;27.40;54.90;;;;;;4912996;29;20040;-46
2022/06/24 11:15:56;;;;;;;3.08;2.78;;;27.50;56.00;;;;;;4909500;29;20500;-46
2022/06/24 11:18:31;;;;;;;2.70;2.10;;;27.60;54.80;;;;;;4912474;29;20032;-46
2022/06/24 11:21:00;;;;;;;3.20;2.90;;;27.80;55.10;;;;;;4912741;29;20108;-48
2022/06/24 11:23:40;;;;;;;2.63;2.42;;;27.80;54.20;;;;;;4911843;29;20404;-48
2022/06/24 11:26:15;;;;;;;1.95;1.85;;;27.90;53.70;;;;;;4910947;29;20415;-47
2022/06/24 11:28:48;;;;;;;2.85;2.03;;;28.00;53.70;;;;;;4911037;29;20124;-48
2022/06/24 11:31:26;;;;;;;2.22;1.73;;;28.00;53.90;;;;;;4883780;29;20044;-49
2022/06/24 11:34:05;;;;;;;2.33;2.00;;;28.10;53.50;;;;;;4911467;29;20044;-46
2022/06/24 11:36:33;;;;;;;4.38;2.00;;;28.10;53.50;;;;;;4911430;29;20051;-50
2022/06/24 11:39:05;;;;;;;2.17;1.98;;;28.20;54.50;;;;;;4913362;29;20096;-50
2022/06/24 11:41:47;;;;;;;;;;;28.30;53.90;;;;;;4913904;29;20040;-50
2022/06/24 11:44:38;;;;;;;3.15;2.00;;;28.40;55.00;;;;;;4915353;29;19926;-47
2022/06/24 11:47:06;;;;;;;3.53;2.40;;;28.50;53.60;;;;;;4913738;29;20044;-47
2022/06/24 11:49:34;;;;;;;2.55;1.83;;;28.50;54.00;;;;;;4910220;29;20823;-47
2022/06/24 11:52:01;;;;;;;2.60;2.28;;;28.60;53.30;;;;;;4880666;29;20061;-48
2022/06/24 11:54:30;;;;;;;2.30;2.17;;;28.60;53.40;;;;;;4913839;29;20170;-47
2022/06/24 11:56:58;;;;;;;2.03;1.83;;;28.70;53.60;;;;;;4913812;29;20048;-49
2022/06/24 11:59:26;;;;;;;2.35;1.75;;;28.70;53.40;;;;;;4896598;29;20044;-51
2022/06/24 12:01:55;;;;;;;2.72;1.90;;;28.80;52.40;;;;;;4910786;29;20448;-47
2022/06/24 12:04:26;;;;;;;1.92;1.83;;;28.90;52.80;;;;;;4914108;29;20107;-46
2022/06/24 12:07:06;;;;;;;2.22;1.75;;;29.00;52.20;;;;;;4898052;29;20044;-45
2022/06/24 12:09:34;;;;;;;;;;;29.10;53.10;;;;;;4913679;29;20044;-47
2022/06/24 12:12:12;;;;;;;2.50;2.05;;;29.20;53.40;;;;;;4911349;29;19962;-46
2022/06/24 12:14:40;;;;;;;2.50;1.85;;;29.30;51.20;;;;;;4912826;29;20899;-47
2022/06/24 12:17:10;;;;;;;2.03;1.92;;;29.30;51.70;;;;;;4913937;29;20484;-47
2022/06/24 12:19:58;;;;;;;4.03;2.58;;;29.20;52.20;;;;;;4913363;29;20504;-47
2022/06/24 12:22:28;;;;;;;3.58;2.30;;;29.30;52.50;;;;;;4912320;29;20043;-47
2022/06/24 12:25:03;;;;;;;2.60;2.40;;;29.30;51.10;;;;;;4913132;29;20048;-49
2022/06/24 12:27:34;;;;;;;2.70;2.50;;;29.30;50.40;;;;;;4914718;29;20036;-47
2022/06/24 12:30:01;;;;;;;3.28;2.13;;;29.40;51.00;;;;;;4911475;29;20040;-49
2022/06/24 12:32:28;;;;;;;3.10;2.28;;;29.40;51.00;;;;;;4909915;29;20093;-47
2022/06/24 12:34:55;;;;;;;3.30;2.67;;;29.50;50.70;;;;;;4906782;29;20056;-47
2022/06/24 12:37:22;;;;;;;2.35;2.13;;;29.60;50.70;;;;;;4909084;29;20534;-51
2022/06/24 12:39:52;;;;;;;3.83;2.20;;;29.60;50.00;;;;;;4909373;29;20072;-47
2022/06/24 12:42:23;;;;;;;2.03;1.85;;;29.70;49.80;;;;;;4913823;29;20041;-48
2022/06/24 12:44:52;;;;;;;2.50;2.15;;;29.70;49.60;;;;;;4912878;29;20137;-50
2022/06/24 12:52:58;;;;;;;1.67;1.58;;;29.80;48.10;;;;;;4917415;29;20048;-48
2022/06/24 12:55:24;;;;;;;2.08;1.48;;;29.90;49.70;;;;;;4914431;29;20048;-49
2022/06/24 12:57:51;;;;;;;2.72;1.42;;;30.00;48.60;;;;;;4910009;29;20052;-50
2022/06/24 13:00:18;;;;;;;1.98;1.35;;;30.10;48.20;;;;;;4915298;29;20533;-48
2022/06/24 13:02:48;;;;;;;1.42;1.33;;;30.20;47.70;;;;;;4911738;29;20127;-49
2022/06/24 13:05:19;;;;;;;2.03;1.80;;;30.30;47.90;;;;;;4922263;29;20052;-50
2022/06/24 13:07:47;;;;;;;1.60;1.50;;;30.50;47.70;;;;;;4910202;29;20100;-47
2022/06/24 13:10:17;;;;;;;1.88;1.75;;;30.60;46.80;;;;;;4909092;29;20112;-50
2022/06/24 13:12:44;;;;;;;1.48;1.38;;;30.70;46.90;;;;;;4910485;29;20036;-51
2022/06/24 13:15:12;;;;;;;0.73;0.73;;;30.80;47.00;;;;;;4915262;29;20084;-50